sensor_id;sensor_type;location;lat;lon;timestamp;temperature;humidity
53208;DHT22;39093;52.788;6.940;2023-03-21T00:01:51;9.00;99.90
53208;DHT22;39093;52.788;6.940;2023-03-21T00:04:20;9.00;99.90
53208;DHT22;39093;52.788;6.940;2023-03-21T00:06:47;9.00;99.90
53208;DHT22;39093;52.788;6.940;2023-03-21T00:09:14;9.00;99.90
53208;DHT22;39093;52.788;6.940;2023-03-21T00:11:42;9.00;99.90
53208;DHT22;39093;52.788;6.940;2023-03-21T00:14:08;9.00;99.90
53208;DHT22;39093;52.788;6.940;2023-03-21T00:16:42;9.10;99.90
53208;DHT22;39093;52.788;6.940;2023-03-21T00:19:11;9.20;99.90
53208;DHT22;39093;52.788;6.940;2023-03-21T00:21:40;9.10;99.90
53208;DHT22;39093;52.788;6.940;2023-03-21T00:24:28;9.00;99.90
53208;DHT22;39093;52.788;6.940;2023-03-21T00:26:55;9.10;99.90
53208;DHT22;39093;52.788;6.940;2023-03-21T00:29:41;9.20;99.90
53208;DHT22;39093;52.788;6.940;2023-03-21T00:32:08;9.10;99.90
53208;DHT22;39093;52.788;6.940;2023-03-21T00:34:35;9.10;99.90
53208;DHT22;39093;52.788;6.940;2023-03-21T00:37:14;9.10;99.90
53208;DHT22;39093;52.788;6.940;2023-03-21T00:39:46;9.10;99.90
53208;DHT22;39093;52.788;6.940;2023-03-21T00:42:17;9.10;99.90
53208;DHT22;39093;52.788;6.940;2023-03-21T00:44:44;9.10;99.90
53208;DHT22;39093;52.788;6.940;2023-03-21T00:47:11;9.10;99.90
53208;DHT22;39093;52.788;6.940;2023-03-21T00:49:38;9.10;99.90
53208;DHT22;39093;52.788;6.940;2023-03-21T00:52:08;9.10;99.90
53208;DHT22;39093;52.788;6.940;2023-03-21T00:54:47;9.10;99.90
53208;DHT22;39093;52.788;6.940;2023-03-21T00:57:14;9.10;99.90
53208;DHT22;39093;52.788;6.940;2023-03-21T00:59:42;9.10;99.90
53208;DHT22;39093;52.788;6.940;2023-03-21T01:02:09;9.10;99.90
53208;DHT22;39093;52.788;6.940;2023-03-21T01:04:42;9.10;99.90
53208;DHT22;39093;52.788;6.940;2023-03-21T01:07:09;9.10;99.90
53208;DHT22;39093;52.788;6.940;2023-03-21T01:09:36;9.10;99.90
53208;DHT22;39093;52.788;6.940;2023-03-21T01:12:03;9.10;99.90
53208;DHT22;39093;52.788;6.940;2023-03-21T01:14:31;9.10;99.90
53208;DHT22;39093;52.788;6.940;2023-03-21T01:16:58;9.20;99.90
53208;DHT22;39093;52.788;6.940;2023-03-21T01:19:25;9.20;99.90
53208;DHT22;39093;52.788;6.940;2023-03-21T01:22:13;9.20;99.90
53208;DHT22;39093;52.788;6.940;2023-03-21T01:24:40;9.20;99.90
53208;DHT22;39093;52.788;6.940;2023-03-21T01:27:20;9.20;99.90
53208;DHT22;39093;52.788;6.940;2023-03-21T01:29:47;9.20;99.90
53208;DHT22;39093;52.788;6.940;2023-03-21T01:32:14;9.20;99.90
53208;DHT22;39093;52.788;6.940;2023-03-21T01:34:42;9.30;99.90
53208;DHT22;39093;52.788;6.940;2023-03-21T01:37:09;9.20;99.90
53208;DHT22;39093;52.788;6.940;2023-03-21T01:39:36;9.20;99.90
53208;DHT22;39093;52.788;6.940;2023-03-21T01:42:03;9.20;99.90
53208;DHT22;39093;52.788;6.940;2023-03-21T01:44:29;9.30;99.90
53208;DHT22;39093;52.788;6.940;2023-03-21T01:46:57;9.30;99.90
53208;DHT22;39093;52.788;6.940;2023-03-21T01:49:40;9.20;99.90
53208;DHT22;39093;52.788;6.940;2023-03-21T02:00:04;9.40;99.90
53208;DHT22;39093;52.788;6.940;2023-03-21T02:02:44;9.40;99.90
53208;DHT22;39093;52.788;6.940;2023-03-21T02:05:36;9.40;99.90
53208;DHT22;39093;52.788;6.940;2023-03-21T02:08:08;9.40;99.90
53208;DHT22;39093;52.788;6.940;2023-03-21T02:10:35;9.40;99.90
53208;DHT22;39093;52.788;6.940;2023-03-21T02:13:03;9.50;99.90
53208;DHT22;39093;52.788;6.940;2023-03-21T02:15:38;9.40;99.90
53208;DHT22;39093;52.788;6.940;2023-03-21T02:18:45;9.40;99.90
53208;DHT22;39093;52.788;6.940;2023-03-21T02:22:22;9.40;99.90
53208;DHT22;39093;52.788;6.940;2023-03-21T02:27:25;9.50;99.90
53208;DHT22;39093;52.788;6.940;2023-03-21T02:30:02;9.50;99.90
53208;DHT22;39093;52.788;6.940;2023-03-21T02:47:02;9.50;99.90
53208;DHT22;39093;52.788;6.940;2023-03-21T02:49:43;9.40;99.90
53208;DHT22;39093;52.788;6.940;2023-03-21T02:52:14;9.50;99.90
53208;DHT22;39093;52.788;6.940;2023-03-21T02:55:02;9.60;99.90
53208;DHT22;39093;52.788;6.940;2023-03-21T02:57:32;9.50;99.90
53208;DHT22;39093;52.788;6.940;2023-03-21T03:00:11;9.60;99.90
53208;DHT22;39093;52.788;6.940;2023-03-21T03:02:43;9.50;99.90
53208;DHT22;39093;52.788;6.940;2023-03-21T03:05:30;9.60;99.90
53208;DHT22;39093;52.788;6.940;2023-03-21T03:08:26;9.50;99.90
53208;DHT22;39093;52.788;6.940;2023-03-21T03:11:25;9.50;99.90
53208;DHT22;39093;52.788;6.940;2023-03-21T03:19:57;9.50;99.90
53208;DHT22;39093;52.788;6.940;2023-03-21T03:23:04;9.50;99.90
53208;DHT22;39093;52.788;6.940;2023-03-21T03:25:46;9.40;99.90
53208;DHT22;39093;52.788;6.940;2023-03-21T03:28:19;9.50;99.90
53208;DHT22;39093;52.788;6.940;2023-03-21T03:30:48;9.50;99.90
53208;DHT22;39093;52.788;6.940;2023-03-21T03:33:34;9.50;99.90
53208;DHT22;39093;52.788;6.940;2023-03-21T03:36:05;9.50;99.90
53208;DHT22;39093;52.788;6.940;2023-03-21T03:38:37;9.40;99.90
53208;DHT22;39093;52.788;6.940;2023-03-21T03:41:11;9.50;99.90
53208;DHT22;39093;52.788;6.940;2023-03-21T03:43:45;9.40;99.90
53208;DHT22;39093;52.788;6.940;2023-03-21T03:46:18;9.50;99.90
53208;DHT22;39093;52.788;6.940;2023-03-21T03:48:55;9.50;99.90
53208;DHT22;39093;52.788;6.940;2023-03-21T03:51:28;9.40;99.90
53208;DHT22;39093;52.788;6.940;2023-03-21T03:53:59;9.50;99.90
53208;DHT22;39093;52.788;6.940;2023-03-21T03:56:27;9.50;99.90
53208;DHT22;39093;52.788;6.940;2023-03-21T03:58:56;9.50;99.90
53208;DHT22;39093;52.788;6.940;2023-03-21T04:01:23;9.40;99.90
53208;DHT22;39093;52.788;6.940;2023-03-21T04:03:50;9.40;99.90
53208;DHT22;39093;52.788;6.940;2023-03-21T04:06:32;9.40;99.90
53208;DHT22;39093;52.788;6.940;2023-03-21T04:08:59;9.50;99.90
53208;DHT22;39093;52.788;6.940;2023-03-21T04:11:31;9.40;99.90
53208;DHT22;39093;52.788;6.940;2023-03-21T04:13:57;9.40;99.90
53208;DHT22;39093;52.788;6.940;2023-03-21T04:16:24;9.40;99.90
53208;DHT22;39093;52.788;6.940;2023-03-21T04:18:51;9.40;99.90
53208;DHT22;39093;52.788;6.940;2023-03-21T04:21:19;9.30;99.90
53208;DHT22;39093;52.788;6.940;2023-03-21T04:23:47;9.40;99.90
53208;DHT22;39093;52.788;6.940;2023-03-21T04:26:14;9.40;99.90
53208;DHT22;39093;52.788;6.940;2023-03-21T04:28:40;9.40;99.90
53208;DHT22;39093;52.788;6.940;2023-03-21T04:31:07;9.30;99.90
53208;DHT22;39093;52.788;6.940;2023-03-21T04:33:50;9.40;99.90
53208;DHT22;39093;52.788;6.940;2023-03-21T04:40:05;9.30;99.90
53208;DHT22;39093;52.788;6.940;2023-03-21T04:42:34;9.30;99.90
53208;DHT22;39093;52.788;6.940;2023-03-21T04:45:01;9.40;99.90
53208;DHT22;39093;52.788;6.940;2023-03-21T04:47:28;9.30;99.90
53208;DHT22;39093;52.788;6.940;2023-03-21T04:49:55;9.30;99.90
53208;DHT22;39093;52.788;6.940;2023-03-21T04:52:23;9.30;99.90
53208;DHT22;39093;52.788;6.940;2023-03-21T04:54:51;9.30;99.90
53208;DHT22;39093;52.788;6.940;2023-03-21T04:57:18;9.40;99.90
53208;DHT22;39093;52.788;6.940;2023-03-21T04:59:45;9.30;99.90
53208;DHT22;39093;52.788;6.940;2023-03-21T05:02:12;9.40;99.90
53208;DHT22;39093;52.788;6.940;2023-03-21T05:04:39;9.30;99.90
53208;DHT22;39093;52.788;6.940;2023-03-21T05:07:07;9.30;99.90
53208;DHT22;39093;52.788;6.940;2023-03-21T05:09:34;9.30;99.90
53208;DHT22;39093;52.788;6.940;2023-03-21T05:12:01;9.30;99.90
53208;DHT22;39093;52.788;6.940;2023-03-21T05:14:28;9.30;99.90
53208;DHT22;39093;52.788;6.940;2023-03-21T05:16:55;9.30;99.90
53208;DHT22;39093;52.788;6.940;2023-03-21T05:19:25;9.30;99.90
53208;DHT22;39093;52.788;6.940;2023-03-21T05:22:09;9.30;99.90
53208;DHT22;39093;52.788;6.940;2023-03-21T05:24:37;9.30;99.90
53208;DHT22;39093;52.788;6.940;2023-03-21T05:27:08;9.30;99.90
53208;DHT22;39093;52.788;6.940;2023-03-21T05:29:34;9.30;99.90
53208;DHT22;39093;52.788;6.940;2023-03-21T05:32:01;9.30;99.90
53208;DHT22;39093;52.788;6.940;2023-03-21T05:34:29;9.30;99.90
53208;DHT22;39093;52.788;6.940;2023-03-21T05:36:56;9.20;99.90
53208;DHT22;39093;52.788;6.940;2023-03-21T05:39:23;9.30;99.90
53208;DHT22;39093;52.788;6.940;2023-03-21T05:41:50;9.20;99.90
53208;DHT22;39093;52.788;6.940;2023-03-21T05:44:16;9.20;99.90
53208;DHT22;39093;52.788;6.940;2023-03-21T05:46:43;9.20;99.90
53208;DHT22;39093;52.788;6.940;2023-03-21T05:49:10;9.30;99.90
53208;DHT22;39093;52.788;6.940;2023-03-21T05:51:38;9.20;99.90
53208;DHT22;39093;52.788;6.940;2023-03-21T05:54:05;9.30;99.90
53208;DHT22;39093;52.788;6.940;2023-03-21T05:56:32;9.20;99.90
53208;DHT22;39093;52.788;6.940;2023-03-21T05:58:59;9.30;99.90
53208;DHT22;39093;52.788;6.940;2023-03-21T06:01:26;9.30;99.90
53208;DHT22;39093;52.788;6.940;2023-03-21T06:03:52;9.30;99.90
53208;DHT22;39093;52.788;6.940;2023-03-21T06:06:20;9.20;99.90
53208;DHT22;39093;52.788;6.940;2023-03-21T06:08:47;9.30;99.90
53208;DHT22;39093;52.788;6.940;2023-03-21T06:11:25;9.20;99.90
53208;DHT22;39093;52.788;6.940;2023-03-21T06:13:52;9.20;99.90
53208;DHT22;39093;52.788;6.940;2023-03-21T06:16:19;9.30;99.90
53208;DHT22;39093;52.788;6.940;2023-03-21T06:18:46;9.20;99.90
53208;DHT22;39093;52.788;6.940;2023-03-21T06:21:13;9.20;99.90
53208;DHT22;39093;52.788;6.940;2023-03-21T06:23:40;9.20;99.90
53208;DHT22;39093;52.788;6.940;2023-03-21T06:26:07;9.30;99.90
53208;DHT22;39093;52.788;6.940;2023-03-21T06:28:33;9.30;99.90
53208;DHT22;39093;52.788;6.940;2023-03-21T06:31:00;9.40;99.90
53208;DHT22;39093;52.788;6.940;2023-03-21T06:33:27;9.30;99.90
53208;DHT22;39093;52.788;6.940;2023-03-21T06:35:56;9.30;99.90
53208;DHT22;39093;52.788;6.940;2023-03-21T06:38:24;9.30;99.90
53208;DHT22;39093;52.788;6.940;2023-03-21T06:40:52;9.30;99.90
53208;DHT22;39093;52.788;6.940;2023-03-21T06:43:19;9.40;99.90
53208;DHT22;39093;52.788;6.940;2023-03-21T06:45:46;9.30;99.90
53208;DHT22;39093;52.788;6.940;2023-03-21T06:48:13;9.30;99.90
53208;DHT22;39093;52.788;6.940;2023-03-21T06:50:42;9.40;99.90
53208;DHT22;39093;52.788;6.940;2023-03-21T06:53:09;9.30;99.90
53208;DHT22;39093;52.788;6.940;2023-03-21T06:55:36;9.40;99.90
53208;DHT22;39093;52.788;6.940;2023-03-21T06:58:03;9.40;99.90
53208;DHT22;39093;52.788;6.940;2023-03-21T07:00:30;9.40;99.90
53208;DHT22;39093;52.788;6.940;2023-03-21T07:02:58;9.40;99.90
53208;DHT22;39093;52.788;6.940;2023-03-21T07:05:26;9.40;99.90
53208;DHT22;39093;52.788;6.940;2023-03-21T07:07:53;9.40;99.90
53208;DHT22;39093;52.788;6.940;2023-03-21T07:10:20;9.50;99.90
53208;DHT22;39093;52.788;6.940;2023-03-21T07:12:47;9.50;99.90
53208;DHT22;39093;52.788;6.940;2023-03-21T07:15:14;9.50;99.90
53208;DHT22;39093;52.788;6.940;2023-03-21T07:17:41;9.50;99.90
53208;DHT22;39093;52.788;6.940;2023-03-21T07:20:08;9.40;99.90
53208;DHT22;39093;52.788;6.940;2023-03-21T07:22:38;9.40;99.90
53208;DHT22;39093;52.788;6.940;2023-03-21T07:25:06;9.50;99.90
53208;DHT22;39093;52.788;6.940;2023-03-21T07:27:33;9.50;99.90
53208;DHT22;39093;52.788;6.940;2023-03-21T07:30:00;9.50;99.90
53208;DHT22;39093;52.788;6.940;2023-03-21T07:32:27;9.50;99.90
53208;DHT22;39093;52.788;6.940;2023-03-21T07:34:55;9.50;99.90
53208;DHT22;39093;52.788;6.940;2023-03-21T07:37:22;9.50;99.90
53208;DHT22;39093;52.788;6.940;2023-03-21T07:39:49;9.50;99.90
53208;DHT22;39093;52.788;6.940;2023-03-21T07:42:17;9.50;99.90
53208;DHT22;39093;52.788;6.940;2023-03-21T07:44:44;9.40;99.90
53208;DHT22;39093;52.788;6.940;2023-03-21T07:47:11;9.40;99.90
53208;DHT22;39093;52.788;6.940;2023-03-21T07:49:38;9.40;99.90
53208;DHT22;39093;52.788;6.940;2023-03-21T07:52:05;9.40;99.90
53208;DHT22;39093;52.788;6.940;2023-03-21T07:54:34;9.40;99.90
53208;DHT22;39093;52.788;6.940;2023-03-21T07:57:01;9.40;99.90
53208;DHT22;39093;52.788;6.940;2023-03-21T07:59:28;9.40;99.90
53208;DHT22;39093;52.788;6.940;2023-03-21T08:01:55;9.40;99.90
53208;DHT22;39093;52.788;6.940;2023-03-21T08:04:22;9.40;99.90
53208;DHT22;39093;52.788;6.940;2023-03-21T08:06:49;9.40;99.90
53208;DHT22;39093;52.788;6.940;2023-03-21T08:09:16;9.40;99.90
53208;DHT22;39093;52.788;6.940;2023-03-21T08:11:43;9.40;99.90
53208;DHT22;39093;52.788;6.940;2023-03-21T08:14:10;9.40;99.90
53208;DHT22;39093;52.788;6.940;2023-03-21T08:16:37;9.40;99.90
53208;DHT22;39093;52.788;6.940;2023-03-21T08:19:13;9.40;99.90
53208;DHT22;39093;52.788;6.940;2023-03-21T08:21:40;9.40;99.90
53208;DHT22;39093;52.788;6.940;2023-03-21T08:24:12;9.50;99.90
53208;DHT22;39093;52.788;6.940;2023-03-21T08:26:43;9.50;99.90
53208;DHT22;39093;52.788;6.940;2023-03-21T08:29:12;9.50;99.90
53208;DHT22;39093;52.788;6.940;2023-03-21T08:31:39;9.40;99.90
53208;DHT22;39093;52.788;6.940;2023-03-21T08:34:07;9.50;99.90
53208;DHT22;39093;52.788;6.940;2023-03-21T08:36:35;9.50;99.90
53208;DHT22;39093;52.788;6.940;2023-03-21T08:39:04;9.50;99.90
53208;DHT22;39093;52.788;6.940;2023-03-21T08:41:32;9.60;99.90
53208;DHT22;39093;52.788;6.940;2023-03-21T08:43:59;9.60;99.90
53208;DHT22;39093;52.788;6.940;2023-03-21T08:46:26;9.60;99.90
53208;DHT22;39093;52.788;6.940;2023-03-21T08:48:53;9.60;99.90
53208;DHT22;39093;52.788;6.940;2023-03-21T08:51:20;9.60;99.90
53208;DHT22;39093;52.788;6.940;2023-03-21T08:53:47;9.60;99.90
53208;DHT22;39093;52.788;6.940;2023-03-21T08:56:17;9.60;99.90
53208;DHT22;39093;52.788;6.940;2023-03-21T08:58:44;9.60;99.90
53208;DHT22;39093;52.788;6.940;2023-03-21T09:01:11;9.70;99.90
53208;DHT22;39093;52.788;6.940;2023-03-21T09:03:42;9.70;99.90
53208;DHT22;39093;52.788;6.940;2023-03-21T09:06:10;9.70;99.90
53208;DHT22;39093;52.788;6.940;2023-03-21T09:08:40;9.70;99.90
53208;DHT22;39093;52.788;6.940;2023-03-21T09:11:12;9.70;99.90
53208;DHT22;39093;52.788;6.940;2023-03-21T09:13:39;9.70;99.90
53208;DHT22;39093;52.788;6.940;2023-03-21T09:16:07;9.80;99.90
53208;DHT22;39093;52.788;6.940;2023-03-21T09:18:34;9.80;99.90
53208;DHT22;39093;52.788;6.940;2023-03-21T09:21:14;9.80;99.90
53208;DHT22;39093;52.788;6.940;2023-03-21T09:23:42;9.90;99.90
53208;DHT22;39093;52.788;6.940;2023-03-21T09:26:10;9.90;99.90
53208;DHT22;39093;52.788;6.940;2023-03-21T09:28:39;9.90;99.90
53208;DHT22;39093;52.788;6.940;2023-03-21T09:31:07;9.90;99.90
53208;DHT22;39093;52.788;6.940;2023-03-21T09:33:38;9.90;99.90
53208;DHT22;39093;52.788;6.940;2023-03-21T09:36:09;9.90;99.90
53208;DHT22;39093;52.788;6.940;2023-03-21T09:38:41;9.90;99.90
53208;DHT22;39093;52.788;6.940;2023-03-21T09:41:53;9.90;99.90
53208;DHT22;39093;52.788;6.940;2023-03-21T09:47:23;9.90;99.90
53208;DHT22;39093;52.788;6.940;2023-03-21T09:50:01;9.90;99.90
53208;DHT22;39093;52.788;6.940;2023-03-21T09:55:36;9.90;99.90
53208;DHT22;39093;52.788;6.940;2023-03-21T09:58:27;9.90;99.90
53208;DHT22;39093;52.788;6.940;2023-03-21T10:01:02;9.90;99.90
53208;DHT22;39093;52.788;6.940;2023-03-21T10:03:33;9.90;99.90
53208;DHT22;39093;52.788;6.940;2023-03-21T10:06:04;9.90;99.90
53208;DHT22;39093;52.788;6.940;2023-03-21T10:08:38;10.00;99.90
53208;DHT22;39093;52.788;6.940;2023-03-21T10:11:14;10.00;99.90
53208;DHT22;39093;52.788;6.940;2023-03-21T10:16:45;10.10;99.90
53208;DHT22;39093;52.788;6.940;2023-03-21T10:19:16;10.10;99.90
53208;DHT22;39093;52.788;6.940;2023-03-21T10:21:46;10.20;99.90
53208;DHT22;39093;52.788;6.940;2023-03-21T10:24:28;10.10;99.90
53208;DHT22;39093;52.788;6.940;2023-03-21T10:26:57;10.10;99.90
53208;DHT22;39093;52.788;6.940;2023-03-21T10:29:33;10.10;99.90
53208;DHT22;39093;52.788;6.940;2023-03-21T10:32:11;10.10;99.90
53208;DHT22;39093;52.788;6.940;2023-03-21T10:34:54;10.10;99.90
53208;DHT22;39093;52.788;6.940;2023-03-21T10:37:27;10.10;99.90
53208;DHT22;39093;52.788;6.940;2023-03-21T10:39:54;10.10;99.90
53208;DHT22;39093;52.788;6.940;2023-03-21T10:42:24;10.10;99.90
53208;DHT22;39093;52.788;6.940;2023-03-21T10:44:54;10.10;99.90
53208;DHT22;39093;52.788;6.940;2023-03-21T10:47:30;10.10;99.90
53208;DHT22;39093;52.788;6.940;2023-03-21T10:50:06;10.20;99.90
53208;DHT22;39093;52.788;6.940;2023-03-21T10:52:40;10.20;99.90
53208;DHT22;39093;52.788;6.940;2023-03-21T10:57:38;10.20;99.90
53208;DHT22;39093;52.788;6.940;2023-03-21T11:00:07;10.30;99.90
53208;DHT22;39093;52.788;6.940;2023-03-21T11:02:50;10.30;99.90
53208;DHT22;39093;52.788;6.940;2023-03-21T11:05:26;10.30;99.90
53208;DHT22;39093;52.788;6.940;2023-03-21T11:08:05;10.30;99.90
53208;DHT22;39093;52.788;6.940;2023-03-21T11:10:35;10.30;99.90
53208;DHT22;39093;52.788;6.940;2023-03-21T11:13:17;10.30;99.90
53208;DHT22;39093;52.788;6.940;2023-03-21T11:15:57;10.30;99.90
53208;DHT22;39093;52.788;6.940;2023-03-21T11:18:26;10.30;99.90
53208;DHT22;39093;52.788;6.940;2023-03-21T11:20:59;10.30;99.90
53208;DHT22;39093;52.788;6.940;2023-03-21T11:23:29;10.30;99.90
53208;DHT22;39093;52.788;6.940;2023-03-21T11:25:59;10.30;99.90
53208;DHT22;39093;52.788;6.940;2023-03-21T11:28:33;10.40;99.90
53208;DHT22;39093;52.788;6.940;2023-03-21T11:31:03;10.40;99.90
53208;DHT22;39093;52.788;6.940;2023-03-21T11:33:34;10.40;99.90
53208;DHT22;39093;52.788;6.940;2023-03-21T11:36:05;10.40;99.90
53208;DHT22;39093;52.788;6.940;2023-03-21T11:38:36;10.40;99.90
53208;DHT22;39093;52.788;6.940;2023-03-21T11:41:05;10.50;99.90
53208;DHT22;39093;52.788;6.940;2023-03-21T11:43:37;10.60;99.90
53208;DHT22;39093;52.788;6.940;2023-03-21T11:46:13;10.70;99.90
53208;DHT22;39093;52.788;6.940;2023-03-21T11:48:45;10.80;99.90
53208;DHT22;39093;52.788;6.940;2023-03-21T11:56:41;11.10;99.90
53208;DHT22;39093;52.788;6.940;2023-03-21T11:59:21;11.10;99.90
53208;DHT22;39093;52.788;6.940;2023-03-21T12:24:22;11.30;99.90
53208;DHT22;39093;52.788;6.940;2023-03-21T12:38:02;11.60;99.90
53208;DHT22;39093;52.788;6.940;2023-03-21T12:43:21;11.70;99.90
53208;DHT22;39093;52.788;6.940;2023-03-21T12:45:54;11.70;99.90
53208;DHT22;39093;52.788;6.940;2023-03-21T12:48:37;11.70;99.90
53208;DHT22;39093;52.788;6.940;2023-03-21T12:51:13;11.70;99.90
53208;DHT22;39093;52.788;6.940;2023-03-21T12:53:51;11.70;99.90
53208;DHT22;39093;52.788;6.940;2023-03-21T12:56:23;11.70;99.90
53208;DHT22;39093;52.788;6.940;2023-03-21T12:59:37;11.80;99.90
53208;DHT22;39093;52.788;6.940;2023-03-21T13:01:45;11.70;99.90
53208;DHT22;39093;52.788;6.940;2023-03-21T13:04:44;11.70;99.90
53208;DHT22;39093;52.788;6.940;2023-03-21T13:07:16;11.70;99.90
53208;DHT22;39093;52.788;6.940;2023-03-21T13:09:46;11.70;99.90
53208;DHT22;39093;52.788;6.940;2023-03-21T13:15:29;11.70;99.90
53208;DHT22;39093;52.788;6.940;2023-03-21T13:18:28;11.60;99.90
53208;DHT22;39093;52.788;6.940;2023-03-21T13:20:55;11.60;99.90
53208;DHT22;39093;52.788;6.940;2023-03-21T13:23:34;11.60;99.90
53208;DHT22;39093;52.788;6.940;2023-03-21T13:26:01;11.60;99.90
53208;DHT22;39093;52.788;6.940;2023-03-21T13:28:31;11.60;99.90
53208;DHT22;39093;52.788;6.940;2023-03-21T13:31:35;11.60;99.90
53208;DHT22;39093;52.788;6.940;2023-03-21T13:34:20;11.70;99.90
53208;DHT22;39093;52.788;6.940;2023-03-21T13:36:49;11.80;99.90
53208;DHT22;39093;52.788;6.940;2023-03-21T13:39:20;12.00;99.90
53208;DHT22;39093;52.788;6.940;2023-03-21T13:41:50;12.20;99.90
53208;DHT22;39093;52.788;6.940;2023-03-21T13:47:04;12.20;99.90
53208;DHT22;39093;52.788;6.940;2023-03-21T13:49:36;12.20;99.90
53208;DHT22;39093;52.788;6.940;2023-03-21T13:54:52;12.20;99.90
53208;DHT22;39093;52.788;6.940;2023-03-21T13:57:36;12.30;99.90
53208;DHT22;39093;52.788;6.940;2023-03-21T14:00:27;12.30;99.90
53208;DHT22;39093;52.788;6.940;2023-03-21T14:03:12;12.20;99.90
53208;DHT22;39093;52.788;6.940;2023-03-21T14:05:41;12.20;99.90
53208;DHT22;39093;52.788;6.940;2023-03-21T14:08:16;12.30;99.90
53208;DHT22;39093;52.788;6.940;2023-03-21T14:11:04;12.20;99.90
53208;DHT22;39093;52.788;6.940;2023-03-21T14:13:32;12.30;99.90
53208;DHT22;39093;52.788;6.940;2023-03-21T14:16:15;12.30;99.90
53208;DHT22;39093;52.788;6.940;2023-03-21T14:18:51;12.20;99.90
53208;DHT22;39093;52.788;6.940;2023-03-21T14:21:24;12.20;99.90
53208;DHT22;39093;52.788;6.940;2023-03-21T14:24:06;12.20;99.90
53208;DHT22;39093;52.788;6.940;2023-03-21T14:26:36;12.10;99.90
53208;DHT22;39093;52.788;6.940;2023-03-21T14:29:07;12.10;99.90
53208;DHT22;39093;52.788;6.940;2023-03-21T14:31:53;12.10;99.90
53208;DHT22;39093;52.788;6.940;2023-03-21T14:34:21;12.20;99.90
53208;DHT22;39093;52.788;6.940;2023-03-21T14:36:51;12.20;99.90
53208;DHT22;39093;52.788;6.940;2023-03-21T14:39:28;12.20;99.90
53208;DHT22;39093;52.788;6.940;2023-03-21T14:42:04;12.30;99.90
53208;DHT22;39093;52.788;6.940;2023-03-21T14:44:35;12.50;99.90
53208;DHT22;39093;52.788;6.940;2023-03-21T14:47:22;12.50;99.90
53208;DHT22;39093;52.788;6.940;2023-03-21T14:49:49;12.50;99.90
53208;DHT22;39093;52.788;6.940;2023-03-21T14:52:29;12.60;99.90
53208;DHT22;39093;52.788;6.940;2023-03-21T14:54:58;13.30;99.90
53208;DHT22;39093;52.788;6.940;2023-03-21T14:57:29;13.60;99.90
53208;DHT22;39093;52.788;6.940;2023-03-21T14:59:59;13.70;99.90
53208;DHT22;39093;52.788;6.940;2023-03-21T15:02:32;13.60;99.90
53208;DHT22;39093;52.788;6.940;2023-03-21T15:05:24;13.40;99.90
53208;DHT22;39093;52.788;6.940;2023-03-21T15:08:16;13.30;99.90
53208;DHT22;39093;52.788;6.940;2023-03-21T15:11:05;13.10;99.90
53208;DHT22;39093;52.788;6.940;2023-03-21T15:13:36;13.10;99.90
53208;DHT22;39093;52.788;6.940;2023-03-21T15:16:06;13.20;99.90
53208;DHT22;39093;52.788;6.940;2023-03-21T15:18:36;13.30;99.90
53208;DHT22;39093;52.788;6.940;2023-03-21T15:23:49;13.30;99.90
53208;DHT22;39093;52.788;6.940;2023-03-21T15:26:19;13.30;99.90
53208;DHT22;39093;52.788;6.940;2023-03-21T15:28:49;13.30;99.90
53208;DHT22;39093;52.788;6.940;2023-03-21T15:31:18;13.30;99.90
53208;DHT22;39093;52.788;6.940;2023-03-21T15:33:47;13.30;99.90
53208;DHT22;39093;52.788;6.940;2023-03-21T15:36:20;13.20;99.90
53208;DHT22;39093;52.788;6.940;2023-03-21T15:38:48;13.10;99.90
53208;DHT22;39093;52.788;6.940;2023-03-21T15:46:47;12.90;99.90
53208;DHT22;39093;52.788;6.940;2023-03-21T15:54:41;12.80;99.90
53208;DHT22;39093;52.788;6.940;2023-03-21T15:57:22;12.80;99.90
53208;DHT22;39093;52.788;6.940;2023-03-21T15:59:55;12.70;99.90
53208;DHT22;39093;52.788;6.940;2023-03-21T16:02:28;12.70;99.90
53208;DHT22;39093;52.788;6.940;2023-03-21T16:07:44;12.70;99.90
53208;DHT22;39093;52.788;6.940;2023-03-21T16:10:34;12.60;99.90
53208;DHT22;39093;52.788;6.940;2023-03-21T16:13:04;12.60;99.90
53208;DHT22;39093;52.788;6.940;2023-03-21T16:15:35;12.60;99.90
53208;DHT22;39093;52.788;6.940;2023-03-21T16:18:04;12.60;99.90
53208;DHT22;39093;52.788;6.940;2023-03-21T16:20:39;12.60;99.90
53208;DHT22;39093;52.788;6.940;2023-03-21T16:23:13;12.60;99.90
53208;DHT22;39093;52.788;6.940;2023-03-21T16:25:44;12.60;99.90
53208;DHT22;39093;52.788;6.940;2023-03-21T16:28:23;12.50;99.90
53208;DHT22;39093;52.788;6.940;2023-03-21T16:30:50;12.60;99.90
53208;DHT22;39093;52.788;6.940;2023-03-21T16:33:17;12.60;99.90
53208;DHT22;39093;52.788;6.940;2023-03-21T16:35:46;12.50;99.90
53208;DHT22;39093;52.788;6.940;2023-03-21T16:38:13;12.60;99.90
53208;DHT22;39093;52.788;6.940;2023-03-21T16:40:41;12.60;99.90
53208;DHT22;39093;52.788;6.940;2023-03-21T16:43:10;12.60;99.90
53208;DHT22;39093;52.788;6.940;2023-03-21T16:45:37;12.50;99.90
53208;DHT22;39093;52.788;6.940;2023-03-21T16:48:04;12.60;99.90
53208;DHT22;39093;52.788;6.940;2023-03-21T16:50:34;12.60;99.90
53208;DHT22;39093;52.788;6.940;2023-03-21T16:53:03;12.60;99.90
53208;DHT22;39093;52.788;6.940;2023-03-21T16:55:30;12.60;99.90
53208;DHT22;39093;52.788;6.940;2023-03-21T16:57:59;12.60;99.90
53208;DHT22;39093;52.788;6.940;2023-03-21T17:00:30;12.50;99.90
53208;DHT22;39093;52.788;6.940;2023-03-21T17:03:00;12.50;99.90
53208;DHT22;39093;52.788;6.940;2023-03-21T17:05:28;12.50;99.90
53208;DHT22;39093;52.788;6.940;2023-03-21T17:07:58;12.50;99.90
53208;DHT22;39093;52.788;6.940;2023-03-21T17:10:29;12.50;99.90
53208;DHT22;39093;52.788;6.940;2023-03-21T17:12:56;12.50;99.90
53208;DHT22;39093;52.788;6.940;2023-03-21T17:15:24;12.40;99.90
53208;DHT22;39093;52.788;6.940;2023-03-21T17:17:51;12.30;99.90
53208;DHT22;39093;52.788;6.940;2023-03-21T17:20:24;12.20;99.90
53208;DHT22;39093;52.788;6.940;2023-03-21T17:22:51;12.10;99.90
53208;DHT22;39093;52.788;6.940;2023-03-21T17:25:18;12.00;99.90
53208;DHT22;39093;52.788;6.940;2023-03-21T17:27:46;11.80;99.90
53208;DHT22;39093;52.788;6.940;2023-03-21T17:30:19;11.90;99.90
53208;DHT22;39093;52.788;6.940;2023-03-21T17:32:47;11.80;99.90
53208;DHT22;39093;52.788;6.940;2023-03-21T17:35:15;11.70;99.90
53208;DHT22;39093;52.788;6.940;2023-03-21T17:37:42;11.60;99.90
53208;DHT22;39093;52.788;6.940;2023-03-21T17:40:23;11.60;99.90
53208;DHT22;39093;52.788;6.940;2023-03-21T17:42:53;11.60;99.90
53208;DHT22;39093;52.788;6.940;2023-03-21T17:45:20;11.50;99.90
53208;DHT22;39093;52.788;6.940;2023-03-21T17:47:49;11.50;99.90
53208;DHT22;39093;52.788;6.940;2023-03-21T17:50:21;11.50;99.90
53208;DHT22;39093;52.788;6.940;2023-03-21T17:52:49;11.40;99.90
53208;DHT22;39093;52.788;6.940;2023-03-21T17:55:19;11.40;99.90
53208;DHT22;39093;52.788;6.940;2023-03-21T17:57:48;11.40;99.90
53208;DHT22;39093;52.788;6.940;2023-03-21T18:00:25;11.50;99.90
53208;DHT22;39093;52.788;6.940;2023-03-21T18:02:52;11.40;99.90